Aérodrome :
LOGIN :

S'inscrire | Disclaimer

   EN    FR    IT 

 










Légende :    VFR   VFR Marginal   IFR   IFR Intensif   IFR Très Intensif
Visi : 
Plafond : 
>= 8 km
>= 3000ft
5 à 8 km
1000 à 3000 ft
1500m à 5 km
500 à 1000 ft
800 à 1500m
200 à 500 ft
< 800m
< 200 ft
Symboles :   Orages  Brouillard  Fortes neiges  Fortes précipitations  Vent > 20 kt
SIGMETs :   Divers  Orages  Givrage  Turbulence  Onde Orograph.  Cendres Volcan.







- Altitude de l'aérodrome : 117 ft
- Code IATA : NWI
- Voir les cartes d'approche


EGSH - Norwich

DERNIER METAR :
  • 220420Z AUTO 25008KT 9999 OVC038/// 06/06 Q1005

METARs EXPIRÉS :
  • 220350Z AUTO 25005KT 9999 OVC037/// 06/06 Q1005
  • 220320Z AUTO 25005KT 9999 OVC037/// 06/06 Q1004
  • 220250Z AUTO 28005KT 9999 OVC040/// 06/05 Q1005
  • 220220Z AUTO 27004KT 9999 OVC040/// 06/06 Q1005
  • 220150Z AUTO 28009KT 9999 BKN041/// BKN049/// 06/06 Q1004
  • 220120Z AUTO 28012KT 9999 FEW006/// BKN043/// 06/06 Q1004

TAF TAF EGSH
Valide du 22 à 03h jusqu'au 22 à 12h UTC


220157Z 2203/2212 25008KT 9999 FEW005 SCT025
PROB30
TEMPO 2203/2205 4000 BR BKN004
ATIS : +44 1603 420 640
Pas de NOTAMs connus pour ce terrain.
1 SIGMET publié pour la FIR London (EGTT) :
 
Onde orographique forte
EGTT SIGMET 01 VALID 220230/220630 EGRR
EGTT LONDON FIR SEV MTW FCST WI N5500 W00348 - N5500 E00025 - N5320 E00143 - N5309 W00144 - N5500 W00348 FL040/270 STNR NC=



MET'MAP, la Météo Aéronautique d'un coup d'oeil ! - Copyright ORBIFLY Décembre 2007 - Disclaimer

ORBIFLY MET'MAP TEAM :

Programmation & Développement : Alexandra Zaïnal
Conception & Développement : Baudouin d'Aumeries
Co-Programmation & Développement : Marc-Olivier Méhu
Soutien technique & logistique : Manuel Goepfert

Contact : metmap@orbifly.com




SOURCES & CREDITS :

   NOAA